createdAt,value
2022-08-03T00:01:37.164Z,2.50
2022-08-03T00:04:05.591Z,2.00
2022-08-03T00:06:36.990Z,2.10
2022-08-03T00:09:05.652Z,2.30
2022-08-03T00:11:33.488Z,1.93
2022-08-03T00:14:01.250Z,2.15
2022-08-03T00:16:28.524Z,2.03
2022-08-03T00:18:55.879Z,1.90
2022-08-03T00:21:23.062Z,2.10
2022-08-03T00:23:51.419Z,2.03
2022-08-03T00:26:21.015Z,2.00
2022-08-03T00:28:48.948Z,2.00
2022-08-03T00:31:16.701Z,2.25
2022-08-03T00:33:58.294Z,2.35
2022-08-03T00:36:28.726Z,2.20
2022-08-03T00:38:56.447Z,2.35
2022-08-03T00:41:23.703Z,2.10
2022-08-03T00:43:50.897Z,2.42
2022-08-03T00:46:21.675Z,2.17
2022-08-03T00:48:52.966Z,1.95
2022-08-03T00:51:21.636Z,2.28
2022-08-03T00:53:49.761Z,2.22
2022-08-03T00:56:17.527Z,2.42
2022-08-03T00:58:46.115Z,2.17
2022-08-03T01:01:14.501Z,2.47
2022-08-03T01:03:42.223Z,2.45
2022-08-03T01:06:16.863Z,1.98
2022-08-03T01:08:50.042Z,2.53
2022-08-03T01:11:34.432Z,2.42
2022-08-03T01:14:18.777Z,2.40
2022-08-03T01:16:52.196Z,2.40
2022-08-03T01:19:34.453Z,2.67
2022-08-03T01:22:07.649Z,2.23
2022-08-03T01:24:59.535Z,2.30
2022-08-03T01:27:43.246Z,2.38
2022-08-03T01:30:12.259Z,2.40
2022-08-03T01:33:00.997Z,2.20
2022-08-03T01:35:47.605Z,2.55
2022-08-03T01:38:27.097Z,2.28
2022-08-03T01:40:55.515Z,2.33
2022-08-03T01:43:55.284Z,2.60
2022-08-03T01:46:20.558Z,2.43
2022-08-03T01:48:49.106Z,2.13
2022-08-03T01:51:19.526Z,2.30
2022-08-03T01:53:50.075Z,2.33
2022-08-03T01:56:20.051Z,2.40
2022-08-03T01:58:49.634Z,2.58
2022-08-03T02:01:17.920Z,2.50
2022-08-03T02:03:59.945Z,2.78
2022-08-03T02:07:00.507Z,2.25
2022-08-03T02:09:20.830Z,2.60
2022-08-03T02:11:50.906Z,2.20
2022-08-03T02:14:19.964Z,2.25
2022-08-03T02:16:49.015Z,2.47
2022-08-03T02:19:18.085Z,2.40
2022-08-03T02:21:57.112Z,2.50
2022-08-03T02:24:29.954Z,2.67
2022-08-03T02:26:58.692Z,2.50
2022-08-03T02:29:39.299Z,2.83
2022-08-03T02:32:14.587Z,2.10
2022-08-03T02:34:46.067Z,2.40
2022-08-03T02:37:14.761Z,2.70
2022-08-03T02:39:43.755Z,2.60
2022-08-03T02:42:13.467Z,2.40
2022-08-03T02:44:47.478Z,3.08
2022-08-03T02:47:16.891Z,2.40
2022-08-03T02:49:50.335Z,2.83
2022-08-03T02:52:24.445Z,3.00
2022-08-03T02:54:56.340Z,3.03
2022-08-03T02:57:25.486Z,2.80
2022-08-03T02:59:56.181Z,3.03
2022-08-03T03:02:24.897Z,3.20
2022-08-03T03:04:59.700Z,3.00
2022-08-03T03:07:51.649Z,3.13
2022-08-03T03:10:22.681Z,3.20
2022-08-03T03:12:56.644Z,3.00
2022-08-03T03:15:25.710Z,3.30
2022-08-03T03:17:53.662Z,3.03
2022-08-03T03:20:29.574Z,3.45
2022-08-03T03:23:00.331Z,3.17
2022-08-03T03:25:32.384Z,3.28
2022-08-03T03:28:03.685Z,3.58
2022-08-03T03:30:34.519Z,3.40
2022-08-03T03:33:02.825Z,3.50
2022-08-03T03:35:30.645Z,3.28
2022-08-03T03:38:04.350Z,3.20
2022-08-03T03:40:31.642Z,3.70
2022-08-03T03:42:59.014Z,3.30
2022-08-03T03:45:27.283Z,3.17
2022-08-03T03:47:54.519Z,3.17
2022-08-03T03:50:25.260Z,3.30
2022-08-03T03:52:52.461Z,2.95
2022-08-03T03:55:19.933Z,3.10
2022-08-03T03:57:47.180Z,3.17
2022-08-03T04:00:15.846Z,3.10
2022-08-03T04:02:43.191Z,3.00
2022-08-03T04:05:29.320Z,2.83
2022-08-03T04:08:37.055Z,3.00
2022-08-03T04:11:11.608Z,3.20
2022-08-03T04:13:50.918Z,2.90
2022-08-03T04:16:23.834Z,3.17
2022-08-03T04:18:59.005Z,3.13
2022-08-03T04:21:26.633Z,3.38
2022-08-03T04:24:02.303Z,3.27
2022-08-03T04:26:33.034Z,3.20
2022-08-03T04:29:00.892Z,2.80
2022-08-03T04:31:29.970Z,3.22
2022-08-03T04:33:57.472Z,4.20
2022-08-03T04:36:31.771Z,4.25
2022-08-03T04:39:30.279Z,4.18
2022-08-03T04:42:08.122Z,3.60
2022-08-03T04:44:39.040Z,3.88
2022-08-03T04:47:06.825Z,4.00
2022-08-03T04:49:36.441Z,4.47
2022-08-03T04:52:05.053Z,4.88
2022-08-03T04:54:39.777Z,4.65
2022-08-03T04:57:06.946Z,4.28
2022-08-03T04:59:36.194Z,3.97
2022-08-03T05:02:08.188Z,3.80
2022-08-03T05:04:35.402Z,4.22
2022-08-03T05:07:12.398Z,4.20
2022-08-03T05:09:49.777Z,4.45
2022-08-03T05:12:18.235Z,4.20
2022-08-03T05:14:45.582Z,4.25
2022-08-03T05:17:12.770Z,4.57
2022-08-03T05:19:39.969Z,4.10
2022-08-03T05:22:07.169Z,3.85
2022-08-03T05:24:34.356Z,4.00
2022-08-03T05:27:01.612Z,3.70
2022-08-03T05:29:28.802Z,3.70
2022-08-03T05:31:56.207Z,4.15
2022-08-03T05:34:23.389Z,4.35
2022-08-03T05:36:50.601Z,4.32
2022-08-03T05:39:17.809Z,4.93
2022-08-03T05:41:44.938Z,4.10
2022-08-03T05:44:12.115Z,4.30
2022-08-03T05:46:39.312Z,4.40
2022-08-03T05:49:06.610Z,4.43
2022-08-03T05:51:33.913Z,4.35
2022-08-03T05:54:01.095Z,4.65
2022-08-03T05:56:28.427Z,4.78
2022-08-03T05:58:55.680Z,4.70
2022-08-03T06:01:23.022Z,4.72
2022-08-03T06:03:51.987Z,5.88
2022-08-03T06:06:19.393Z,6.07
2022-08-03T06:08:48.628Z,6.10
2022-08-03T06:11:16.540Z,6.88
2022-08-03T06:13:44.222Z,6.45
2022-08-03T06:16:11.489Z,6.97
2022-08-03T06:18:40.450Z,7.10
2022-08-03T06:21:14.110Z,7.32
2022-08-03T06:23:53.851Z,7.75
2022-08-03T06:26:24.815Z,6.53
2022-08-03T06:28:54.316Z,7.55
2022-08-03T06:31:24.050Z,5.93
2022-08-03T06:34:34.225Z,6.97
2022-08-03T06:36:39.114Z,6.18
2022-08-03T06:39:06.361Z,6.65
2022-08-03T06:41:38.132Z,7.10
2022-08-03T06:44:08.876Z,8.15
2022-08-03T06:46:37.612Z,7.70
2022-08-03T06:49:04.930Z,7.28
2022-08-03T06:52:03.849Z,8.00
2022-08-03T06:54:19.523Z,8.40
2022-08-03T06:56:46.716Z,8.77
2022-08-03T07:00:10.527Z,9.48
2022-08-03T07:02:01.059Z,10.00
2022-08-03T07:04:28.256Z,9.95
2022-08-03T07:06:55.473Z,10.50
2022-08-03T07:09:22.667Z,10.07
2022-08-03T07:11:49.870Z,9.07
2022-08-03T07:14:17.095Z,10.45
2022-08-03T07:16:44.291Z,10.73
2022-08-03T07:19:12.230Z,10.05
2022-08-03T07:21:39.395Z,11.30
2022-08-03T07:24:06.685Z,10.45
2022-08-03T07:26:34.011Z,11.63
2022-08-03T07:29:01.587Z,10.57
2022-08-03T07:31:28.801Z,11.50
2022-08-03T07:34:01.745Z,10.45
2022-08-03T07:36:28.995Z,10.93
2022-08-03T07:38:58.063Z,9.48
2022-08-03T07:41:25.270Z,10.82
2022-08-03T07:43:52.456Z,10.88
2022-08-03T07:46:19.685Z,9.80
2022-08-03T07:48:46.901Z,9.75
2022-08-03T07:51:14.151Z,9.98
2022-08-03T07:53:47.378Z,7.47
2022-08-03T07:56:16.659Z,9.00
2022-08-03T07:58:43.889Z,8.52
2022-08-03T08:01:11.185Z,9.50
2022-08-03T08:03:53.060Z,9.95
2022-08-03T08:06:21.647Z,9.60
2022-08-03T08:08:51.616Z,9.23
2022-08-03T08:11:18.801Z,9.40
2022-08-03T08:13:45.979Z,10.30
2022-08-03T08:16:13.179Z,9.70
2022-08-03T08:18:40.358Z,9.60
2022-08-03T08:21:07.510Z,9.20
2022-08-03T08:23:42.771Z,9.20
2022-08-03T08:26:11.817Z,9.35
2022-08-03T08:28:39.341Z,9.00
2022-08-03T08:31:08.482Z,8.27
2022-08-03T08:34:03.087Z,7.90
2022-08-03T08:36:24.035Z,8.18
2022-08-03T08:38:51.391Z,7.75
2022-08-03T08:41:19.325Z,7.50
2022-08-03T08:43:46.495Z,6.68
2022-08-03T08:46:23.055Z,6.90
2022-08-03T08:48:52.809Z,5.97
2022-08-03T08:51:22.262Z,5.55
2022-08-03T08:53:53.733Z,6.18
2022-08-03T08:56:25.992Z,5.60
2022-08-03T08:58:58.068Z,6.20
2022-08-03T09:01:25.448Z,5.70
2022-08-03T09:03:54.217Z,5.53
2022-08-03T09:06:22.937Z,6.05
2022-08-03T09:08:50.194Z,6.00
2022-08-03T09:11:21.548Z,6.00
2022-08-03T09:14:36.773Z,5.72
2022-08-03T09:17:04.183Z,6.25
2022-08-03T09:19:33.299Z,5.60
2022-08-03T09:22:14.292Z,6.28
2022-08-03T09:25:23.744Z,5.50
2022-08-03T09:27:51.785Z,5.93
2022-08-03T09:30:34.705Z,5.70
2022-08-03T09:33:04.782Z,5.47
2022-08-03T09:35:53.269Z,6.10
2022-08-03T09:38:26.290Z,7.43
2022-08-03T09:40:59.029Z,7.47
2022-08-03T09:43:27.486Z,6.45
2022-08-03T09:46:03.733Z,6.20
2022-08-03T09:48:34.939Z,5.95
2022-08-03T09:51:14.334Z,6.55
2022-08-03T09:53:59.758Z,5.32
2022-08-03T09:56:46.854Z,5.30
2022-08-03T09:59:24.111Z,5.60
2022-08-03T10:01:54.517Z,5.78
2022-08-03T10:04:24.165Z,5.82
2022-08-03T10:07:10.800Z,5.18
2022-08-03T10:09:38.665Z,5.70
2022-08-03T10:12:10.822Z,5.07
2022-08-03T10:14:40.431Z,5.40
2022-08-03T10:17:09.441Z,5.32
2022-08-03T10:19:36.855Z,5.35
2022-08-03T10:22:22.482Z,5.80
2022-08-03T10:24:54.097Z,5.57
2022-08-03T10:27:23.715Z,5.90
2022-08-03T10:29:54.434Z,6.60
2022-08-03T10:32:42.171Z,6.45
2022-08-03T10:35:20.216Z,7.00
2022-08-03T10:38:02.058Z,7.00
2022-08-03T10:40:53.509Z,6.93
2022-08-03T10:43:28.342Z,6.80
2022-08-03T10:45:56.653Z,5.93
2022-08-03T10:48:25.631Z,6.03
2022-08-03T10:50:53.455Z,6.30
2022-08-03T10:53:36.455Z,7.10
2022-08-03T10:56:28.626Z,6.32
2022-08-03T10:59:10.656Z,6.43
2022-08-03T11:02:00.164Z,6.53
2022-08-03T11:04:30.181Z,6.32
2022-08-03T11:07:26.947Z,6.00
2022-08-03T11:09:56.239Z,6.43
2022-08-03T11:12:32.634Z,6.43
2022-08-03T11:15:05.024Z,7.25
2022-08-03T11:17:55.467Z,6.40
2022-08-03T11:20:48.334Z,6.10
2022-08-03T11:23:17.908Z,6.68
2022-08-03T11:26:14.427Z,5.27
2022-08-03T11:28:44.419Z,5.13
2022-08-03T11:31:48.568Z,4.75
2022-08-03T11:34:14.490Z,5.65
2022-08-03T11:37:27.566Z,5.38
2022-08-03T11:39:58.778Z,5.55
2022-08-03T11:42:26.970Z,5.10
2022-08-03T11:44:56.692Z,5.45
2022-08-03T11:47:27.255Z,5.38
2022-08-03T11:50:01.833Z,6.47
2022-08-03T11:52:35.701Z,6.00
2022-08-03T11:55:08.195Z,5.63
2022-08-03T11:59:12.828Z,5.13
2022-08-03T12:00:30.303Z,5.30
2022-08-03T12:03:00.158Z,5.32
2022-08-03T12:05:51.193Z,5.00
2022-08-03T12:08:31.224Z,4.90
2022-08-03T12:11:00.496Z,4.95
2022-08-03T12:14:30.064Z,5.03
2022-08-03T12:16:31.083Z,5.20
2022-08-03T12:19:04.966Z,5.88
2022-08-03T12:21:32.591Z,4.50
2022-08-03T12:24:02.603Z,4.60
2022-08-03T12:26:42.063Z,4.93
2022-08-03T12:29:17.366Z,5.13
2022-08-03T12:31:44.694Z,4.65
2022-08-03T12:34:12.293Z,4.82
2022-08-03T12:36:51.341Z,4.72
2022-08-03T12:39:24.086Z,4.32
2022-08-03T12:41:54.434Z,4.33
2022-08-03T12:44:35.808Z,4.35
2022-08-03T12:47:04.450Z,4.75
2022-08-03T12:49:46.077Z,4.32
2022-08-03T12:52:13.492Z,4.70
2022-08-03T12:54:41.082Z,4.85
2022-08-03T12:57:11.017Z,4.35
2022-08-03T12:59:52.862Z,4.00
2022-08-03T13:02:26.289Z,4.43
2022-08-03T13:04:54.939Z,4.57
2022-08-03T13:07:23.050Z,4.68
2022-08-03T13:09:55.712Z,5.05
2022-08-03T13:12:27.624Z,4.47
2022-08-03T13:15:01.913Z,3.88
2022-08-03T13:17:29.139Z,3.53
2022-08-03T13:19:56.398Z,4.13
2022-08-03T13:22:27.144Z,3.83
2022-08-03T13:24:58.508Z,4.27
2022-08-03T13:28:05.494Z,3.83
2022-08-03T13:30:22.707Z,3.15
2022-08-03T13:32:58.612Z,3.45
2022-08-03T13:35:26.114Z,3.75
2022-08-03T13:37:53.333Z,3.67
2022-08-03T13:40:23.623Z,3.63
2022-08-03T13:42:51.111Z,3.60
2022-08-03T13:45:18.260Z,4.07
2022-08-03T13:47:45.615Z,3.47
2022-08-03T13:50:12.902Z,3.30
2022-08-03T13:52:40.093Z,3.65
2022-08-03T13:55:08.338Z,2.97
2022-08-03T13:58:03.132Z,3.40
2022-08-03T14:00:27.150Z,3.25
2022-08-03T14:03:13.669Z,3.92
2022-08-03T14:05:42.689Z,3.50
2022-08-03T14:08:10.737Z,3.88
2022-08-03T14:10:39.984Z,3.20
2022-08-03T14:13:07.469Z,3.00
2022-08-03T14:15:37.571Z,3.17
2022-08-03T14:18:07.347Z,2.80
2022-08-03T14:20:50.247Z,3.10
2022-08-03T14:23:21.627Z,3.03
2022-08-03T14:25:51.660Z,2.80
2022-08-03T14:28:24.719Z,3.13
2022-08-03T14:30:53.730Z,2.63
2022-08-03T14:33:21.069Z,2.80
2022-08-03T14:35:48.972Z,3.58
2022-08-03T14:38:16.963Z,3.10
2022-08-03T14:40:44.479Z,3.10
2022-08-03T14:43:11.790Z,3.37
2022-08-03T14:45:39.745Z,3.22
2022-08-03T14:50:34.602Z,2.90
2022-08-03T14:50:55.306Z,2.90
2022-08-03T14:53:22.693Z,2.72
2022-08-03T14:55:51.958Z,2.90
2022-08-03T14:58:23.598Z,3.17
2022-08-03T15:00:53.962Z,2.85
2022-08-03T15:03:25.180Z,3.15
2022-08-03T15:05:56.580Z,3.13
2022-08-03T15:08:26.116Z,3.20
2022-08-03T15:10:54.693Z,3.43
2022-08-03T15:13:22.395Z,3.20
2022-08-03T15:15:49.965Z,3.00
2022-08-03T15:18:17.497Z,3.10
2022-08-03T15:20:46.310Z,2.90
2022-08-03T15:23:16.424Z,3.33
2022-08-03T15:26:29.395Z,2.97
2022-08-03T15:28:32.741Z,3.13
2022-08-03T15:31:00.623Z,3.25
2022-08-03T15:33:28.573Z,3.70
2022-08-03T15:35:56.528Z,3.22
2022-08-03T15:38:25.859Z,3.05
2022-08-03T15:40:54.851Z,2.85
2022-08-03T15:43:23.205Z,3.40
2022-08-03T15:46:19.149Z,2.20
2022-08-03T15:48:38.171Z,2.38
2022-08-03T15:51:06.068Z,2.50
2022-08-03T15:53:33.663Z,2.70
2022-08-03T15:56:03.328Z,2.42
2022-08-03T15:59:03.758Z,2.15
2022-08-03T16:01:21.380Z,2.17
2022-08-03T16:03:48.687Z,2.50
2022-08-03T16:06:15.932Z,2.15
2022-08-03T16:08:43.345Z,2.28
2022-08-03T16:11:10.953Z,2.25
2022-08-03T16:14:12.008Z,2.60
2022-08-03T16:16:25.319Z,2.30
2022-08-03T16:18:52.993Z,2.60
2022-08-03T16:21:21.781Z,2.22
2022-08-03T16:23:51.866Z,2.40
2022-08-03T16:26:19.477Z,2.53
2022-08-03T16:28:46.688Z,2.58
2022-08-03T16:31:13.869Z,2.85
2022-08-03T16:33:41.050Z,2.45
2022-08-03T16:36:08.307Z,2.58
2022-08-03T16:38:35.667Z,2.53
2022-08-03T16:41:04.665Z,2.30
2022-08-03T16:43:34.647Z,2.10
2022-08-03T16:46:01.850Z,2.30
2022-08-03T16:48:29.100Z,2.20
2022-08-03T16:50:56.431Z,2.60
2022-08-03T16:53:51.540Z,2.30
2022-08-03T16:56:11.027Z,2.60
2022-08-03T16:58:42.243Z,2.75
2022-08-03T17:01:24.176Z,2.63
2022-08-03T17:04:03.521Z,2.40
2022-08-03T17:06:36.346Z,2.47
2022-08-03T17:09:09.820Z,2.80
2022-08-03T17:11:46.578Z,2.40
2022-08-03T17:14:16.714Z,2.33
2022-08-03T17:16:52.734Z,2.58
2022-08-03T17:19:23.992Z,2.30
2022-08-03T17:22:10.035Z,2.90
2022-08-03T17:24:42.280Z,2.13
2022-08-03T17:28:42.291Z,2.08
2022-08-03T17:30:10.605Z,2.40
2022-08-03T17:32:52.707Z,2.10
2022-08-03T17:35:34.661Z,2.27
2022-08-03T17:38:07.696Z,2.20
2022-08-03T17:40:38.059Z,2.10
2022-08-03T17:44:13.477Z,2.35
2022-08-03T17:45:54.746Z,2.55
2022-08-03T17:48:25.179Z,2.60
2022-08-03T17:51:00.559Z,2.30
2022-08-03T17:53:34.943Z,2.38
2022-08-03T17:56:40.769Z,2.53
2022-08-03T17:59:08.999Z,2.65
2022-08-03T18:02:26.490Z,2.30
2022-08-03T18:05:15.943Z,2.80
2022-08-03T18:08:01.544Z,2.28
2022-08-03T18:10:34.735Z,1.98
2022-08-03T18:13:24.471Z,2.38
2022-08-03T18:15:57.100Z,1.90
2022-08-03T18:18:36.369Z,2.40
2022-08-03T18:21:09.429Z,2.40
2022-08-03T18:23:50.088Z,1.88
2022-08-03T18:26:18.406Z,2.20
2022-08-03T18:28:46.471Z,2.00
2022-08-03T18:31:59.571Z,2.55
2022-08-03T18:34:18.323Z,2.13
2022-08-03T18:36:52.717Z,1.88
2022-08-03T18:39:23.303Z,2.20
2022-08-03T18:41:52.056Z,2.00
2022-08-03T18:44:45.547Z,1.80
2022-08-03T18:47:52.314Z,1.70
2022-08-03T18:50:39.059Z,1.80
2022-08-03T18:53:23.610Z,1.60
2022-08-03T18:56:25.528Z,1.97
2022-08-03T18:59:11.172Z,1.85
2022-08-03T19:02:00.915Z,1.93
2022-08-03T19:04:41.137Z,1.85
2022-08-03T19:07:26.012Z,2.05
2022-08-03T19:10:04.556Z,1.75
2022-08-03T19:12:50.392Z,1.70
2022-08-03T19:15:36.143Z,1.88
2022-08-03T19:18:10.424Z,1.80
2022-08-03T19:20:38.172Z,1.67
2022-08-03T19:23:12.196Z,2.00
2022-08-03T19:25:41.791Z,1.40
2022-08-03T19:28:09.065Z,1.73
2022-08-03T19:30:39.651Z,1.60
2022-08-03T19:33:12.121Z,1.50
2022-08-03T19:35:51.399Z,1.60
2022-08-03T19:38:28.622Z,2.00
2022-08-03T19:41:00.653Z,1.70
2022-08-03T19:43:53.391Z,1.83
2022-08-03T19:46:30.939Z,5.65
2022-08-03T19:49:26.160Z,1.70
2022-08-03T19:52:16.000Z,1.60
2022-08-03T19:54:53.084Z,1.60
2022-08-03T19:57:25.096Z,1.80
2022-08-03T19:59:54.284Z,1.50
2022-08-03T20:02:27.268Z,1.60
2022-08-03T20:04:56.969Z,1.95
2022-08-03T20:07:26.198Z,1.52
2022-08-03T20:09:56.724Z,2.00
2022-08-03T20:12:29.021Z,1.60
2022-08-03T20:14:59.775Z,1.73
2022-08-03T20:17:57.068Z,1.90
2022-08-03T20:20:24.113Z,2.35
2022-08-03T20:22:57.757Z,2.70
2022-08-03T20:25:57.029Z,1.90
2022-08-03T20:28:50.348Z,1.85
2022-08-03T20:31:30.589Z,2.00
2022-08-03T20:34:05.351Z,1.80
2022-08-03T20:36:32.706Z,3.40
2022-08-03T20:39:00.071Z,2.55
2022-08-03T20:41:27.404Z,2.13
2022-08-03T20:43:54.721Z,2.45
2022-08-03T20:46:29.650Z,2.22
2022-08-03T20:49:03.744Z,2.05
2022-08-03T20:51:52.707Z,2.00
2022-08-03T20:54:30.532Z,2.07
2022-08-03T20:57:03.781Z,1.98
2022-08-03T20:59:46.961Z,1.60
2022-08-03T21:02:29.083Z,1.60
2022-08-03T21:05:08.534Z,1.93
2022-08-03T21:08:05.175Z,1.70
2022-08-03T21:10:37.881Z,1.70
2022-08-03T21:16:06.246Z,1.98
2022-08-03T21:18:43.001Z,2.07
2022-08-03T21:21:14.557Z,2.00
2022-08-03T21:23:48.086Z,2.05
2022-08-03T21:26:19.672Z,2.10
2022-08-03T21:28:49.066Z,1.90
2022-08-03T21:31:25.296Z,2.40
2022-08-03T21:33:59.466Z,2.50
2022-08-03T21:36:28.665Z,2.20
2022-08-03T21:38:57.450Z,2.00
2022-08-03T21:41:30.607Z,4.72
2022-08-03T21:43:58.804Z,3.17
2022-08-03T21:46:29.465Z,2.08
2022-08-03T21:50:06.894Z,2.35
2022-08-03T21:51:50.366Z,10.55
2022-08-03T21:54:20.693Z,5.40
2022-08-03T21:56:50.854Z,5.10
2022-08-03T21:59:19.845Z,4.20
2022-08-03T22:01:48.821Z,2.78
2022-08-03T22:04:50.101Z,2.45
2022-08-03T22:07:10.219Z,2.10
2022-08-03T22:09:37.433Z,1.77
2022-08-03T22:12:05.305Z,1.60
2022-08-03T22:14:33.274Z,2.10
2022-08-03T22:17:00.791Z,1.80
2022-08-03T22:19:33.353Z,1.88
2022-08-03T22:22:04.470Z,1.50
2022-08-03T22:24:32.653Z,2.00
2022-08-03T22:27:21.174Z,1.70
2022-08-03T22:29:50.598Z,1.88
2022-08-03T22:32:17.851Z,2.40
2022-08-03T22:34:47.524Z,1.92
2022-08-03T22:37:18.376Z,2.00
2022-08-03T22:39:46.222Z,2.05
2022-08-03T22:42:13.698Z,1.80
2022-08-03T22:44:40.968Z,1.97
2022-08-03T22:47:10.661Z,2.05
2022-08-03T22:49:38.367Z,2.13
2022-08-03T22:52:07.339Z,1.70
2022-08-03T22:54:35.701Z,1.88
2022-08-03T22:57:04.320Z,1.90
2022-08-03T22:59:40.698Z,2.28
2022-08-03T23:02:20.397Z,2.03
2022-08-03T23:04:51.931Z,1.90
2022-08-03T23:07:30.673Z,1.90
2022-08-03T23:10:00.419Z,2.00
2022-08-03T23:12:29.604Z,1.70
2022-08-03T23:15:01.297Z,2.20
2022-08-03T23:17:30.994Z,2.00
2022-08-03T23:20:09.255Z,2.00
2022-08-03T23:22:39.721Z,2.20
2022-08-03T23:25:10.846Z,2.10
2022-08-03T23:27:41.123Z,2.13
2022-08-03T23:30:10.096Z,2.20
2022-08-03T23:32:37.950Z,2.28
2022-08-03T23:36:22.621Z,2.22
2022-08-03T23:38:21.828Z,2.08
2022-08-03T23:40:51.268Z,2.30
2022-08-03T23:43:47.638Z,2.45
2022-08-03T23:46:08.804Z,2.10
2022-08-03T23:48:36.015Z,2.40
2022-08-03T23:51:09.985Z,2.60
2022-08-03T23:53:47.657Z,2.50
2022-08-03T23:56:59.650Z,2.33
2022-08-03T23:59:29.775Z,2.30
